This is the latest recevied weather packets stored in our database for station/object SALT. If no packets are shown the sender has not sent any weather packets the latest 10 day(s).
| Time | Temp. | Humidity | Pressure | Rain* | Wind** | Luminosity | Snow |
|---|---|---|---|---|---|---|---|
| 1778027701 | 12.78° C | 50% | 1015.8 hPa | 0 mm | - | - | - |
| 1778027148 | 13.33° C | 50% | 1015.7 hPa | 0 mm | - | - | - |
| 1778027099 | 13.33° C | 50% | 1015.7 hPa | 0 mm | - | - | - |
| 1778026496 | 12.22° C | 51% | 1015.9 hPa | 0 mm | - | - | - |
| 1778025893 | 12.78° C | 48% | 1015.8 hPa | 0 mm | - | - | - |
| 1778025290 | 13.33° C | 48% | 1015.8 hPa | 0 mm | - | - | - |
| 1778024688 | 12.78° C | 49% | 1015.8 hPa | 0 mm | - | - | - |
| 1778024083 | 12.78° C | 49% | 1015.8 hPa | 0 mm | - | - | - |
| 1778023480 | 12.78° C | 48% | 1015.8 hPa | 0 mm | - | - | - |
| 1778022878 | 13.33° C | 48% | 1015.7 hPa | 0 mm | - | - | - |
| 1778022275 | 13.33° C | 47% | 1015.7 hPa | 0 mm | - | - | - |
| 1778021672 | 13.89° C | 46% | 1015.7 hPa | 0 mm | - | - | - |
| 1778021070 | 13.89° C | 45% | 1015.6 hPa | 0 mm | - | - | - |
| 1778020465 | 13.33° C | 47% | 1015.7 hPa | 0 mm | - | - | - |
| 1778019862 | 13.33° C | 46% | 1015.8 hPa | 0 mm | - | - | - |
| 1778019260 | 13.89° C | 46% | 1015.7 hPa | 0 mm | - | - | - |
| 1778018658 | 13.89° C | 44% | 1015.8 hPa | 0 mm | - | - | - |
| 1778018054 | 13.89° C | 44% | 1015.8 hPa | 0 mm | - | - | - |
| 1778017453 | 14.44° C | 42% | 1015.9 hPa | 0 mm | - | - | - |
| 1778016847 | 14.44° C | 45% | 1015.8 hPa | 0 mm | - | - | - |
| 1778016245 | 13.89° C | 44% | 1015.9 hPa | 0 mm | - | - | - |
| 1778015642 | 14.44° C | 43% | 1015.9 hPa | 0 mm | - | - | - |
| 1778015040 | 13.89° C | 44% | 1016 hPa | 0 mm | - | - | - |
| 1778014437 | 14.44° C | 42% | 1015.9 hPa | 0 mm | - | - | - |
| 1778013834 | 13.89° C | 47% | 1016 hPa | 0 mm | - | - | - |
* Rain latest 24 hours (hover to see other rain measurements)
** Current wind speed in m/s (hover to see current wind gust speed)